sensor_id;sensor_type;location;lat;lon;timestamp;P1;durP1;ratioP1;P2;durP2;ratioP2
54388;SDS011;40975;50.390;8.640;2023-03-03T00:02:14;18.88;;;8.60;;
54388;SDS011;40975;50.390;8.640;2023-03-03T00:04:40;16.23;;;8.10;;
54388;SDS011;40975;50.390;8.640;2023-03-03T00:07:05;22.02;;;9.48;;
54388;SDS011;40975;50.390;8.640;2023-03-03T00:09:30;20.20;;;9.23;;
54388;SDS011;40975;50.390;8.640;2023-03-03T00:11:56;17.85;;;8.48;;
54388;SDS011;40975;50.390;8.640;2023-03-03T00:14:27;19.70;;;8.82;;
54388;SDS011;40975;50.390;8.640;2023-03-03T00:16:54;21.58;;;9.75;;
54388;SDS011;40975;50.390;8.640;2023-03-03T00:19:20;19.73;;;8.38;;
54388;SDS011;40975;50.390;8.640;2023-03-03T00:21:46;17.65;;;8.38;;
54388;SDS011;40975;50.390;8.640;2023-03-03T00:26:39;18.67;;;8.90;;
54388;SDS011;40975;50.390;8.640;2023-03-03T00:29:23;21.90;;;10.18;;
54388;SDS011;40975;50.390;8.640;2023-03-03T00:31:58;21.25;;;9.70;;
54388;SDS011;40975;50.390;8.640;2023-03-03T00:34:36;22.52;;;10.32;;
54388;SDS011;40975;50.390;8.640;2023-03-03T00:37:02;21.50;;;9.23;;
54388;SDS011;40975;50.390;8.640;2023-03-03T00:39:29;22.33;;;9.35;;
54388;SDS011;40975;50.390;8.640;2023-03-03T00:41:58;25.20;;;11.00;;
54388;SDS011;40975;50.390;8.640;2023-03-03T00:44:32;24.60;;;10.57;;
54388;SDS011;40975;50.390;8.640;2023-03-03T00:47:02;23.67;;;11.00;;
54388;SDS011;40975;50.390;8.640;2023-03-03T00:49:42;21.05;;;9.30;;
54388;SDS011;40975;50.390;8.640;2023-03-03T00:52:15;22.63;;;10.88;;
54388;SDS011;40975;50.390;8.640;2023-03-03T00:54:42;20.88;;;10.02;;
54388;SDS011;40975;50.390;8.640;2023-03-03T00:57:08;24.25;;;9.95;;
54388;SDS011;40975;50.390;8.640;2023-03-03T00:59:35;24.80;;;10.50;;
54388;SDS011;40975;50.390;8.640;2023-03-03T01:02:00;29.13;;;11.05;;
54388;SDS011;40975;50.390;8.640;2023-03-03T01:04:25;25.55;;;11.52;;
54388;SDS011;40975;50.390;8.640;2023-03-03T01:06:51;25.55;;;10.80;;
54388;SDS011;40975;50.390;8.640;2023-03-03T01:09:16;28.63;;;11.35;;
54388;SDS011;40975;50.390;8.640;2023-03-03T01:11:41;28.45;;;11.98;;
54388;SDS011;40975;50.390;8.640;2023-03-03T01:14:07;28.52;;;11.52;;
54388;SDS011;40975;50.390;8.640;2023-03-03T01:16:32;27.77;;;10.93;;
54388;SDS011;40975;50.390;8.640;2023-03-03T01:18:58;31.48;;;11.57;;
54388;SDS011;40975;50.390;8.640;2023-03-03T01:21:23;26.55;;;11.02;;
54388;SDS011;40975;50.390;8.640;2023-03-03T01:23:48;26.45;;;11.45;;
54388;SDS011;40975;50.390;8.640;2023-03-03T01:26:14;25.80;;;11.02;;
54388;SDS011;40975;50.390;8.640;2023-03-03T01:28:39;20.33;;;10.15;;
54388;SDS011;40975;50.390;8.640;2023-03-03T01:31:04;25.88;;;10.05;;
54388;SDS011;40975;50.390;8.640;2023-03-03T01:33:31;26.05;;;10.65;;
54388;SDS011;40975;50.390;8.640;2023-03-03T01:35:57;25.10;;;11.57;;
54388;SDS011;40975;50.390;8.640;2023-03-03T01:38:22;22.17;;;10.75;;
54388;SDS011;40975;50.390;8.640;2023-03-03T01:40:58;29.90;;;11.90;;
54388;SDS011;40975;50.390;8.640;2023-03-03T01:43:28;26.70;;;11.90;;
54388;SDS011;40975;50.390;8.640;2023-03-03T01:48:24;29.58;;;11.90;;
54388;SDS011;40975;50.390;8.640;2023-03-03T01:53:32;29.65;;;11.63;;
54388;SDS011;40975;50.390;8.640;2023-03-03T01:56:01;30.52;;;12.73;;
54388;SDS011;40975;50.390;8.640;2023-03-03T01:58:30;28.02;;;12.18;;
54388;SDS011;40975;50.390;8.640;2023-03-03T02:01:01;25.27;;;11.57;;
54388;SDS011;40975;50.390;8.640;2023-03-03T02:03:31;25.98;;;10.85;;
54388;SDS011;40975;50.390;8.640;2023-03-03T02:05:58;28.63;;;12.07;;
54388;SDS011;40975;50.390;8.640;2023-03-03T02:08:46;28.40;;;12.20;;
54388;SDS011;40975;50.390;8.640;2023-03-03T02:11:18;27.67;;;11.95;;
54388;SDS011;40975;50.390;8.640;2023-03-03T02:13:45;32.53;;;12.95;;
54388;SDS011;40975;50.390;8.640;2023-03-03T02:16:10;26.50;;;12.40;;
54388;SDS011;40975;50.390;8.640;2023-03-03T02:18:36;32.33;;;13.80;;
54388;SDS011;40975;50.390;8.640;2023-03-03T02:21:11;35.08;;;12.95;;
54388;SDS011;40975;50.390;8.640;2023-03-03T02:23:54;34.75;;;13.05;;
54388;SDS011;40975;50.390;8.640;2023-03-03T02:26:27;33.65;;;12.43;;
54388;SDS011;40975;50.390;8.640;2023-03-03T02:29:00;33.63;;;12.70;;
54388;SDS011;40975;50.390;8.640;2023-03-03T02:31:27;33.05;;;13.93;;
54388;SDS011;40975;50.390;8.640;2023-03-03T02:33:54;33.40;;;13.35;;
54388;SDS011;40975;50.390;8.640;2023-03-03T02:36:24;37.40;;;13.38;;
54388;SDS011;40975;50.390;8.640;2023-03-03T02:41:31;29.90;;;13.13;;
54388;SDS011;40975;50.390;8.640;2023-03-03T02:44:12;33.83;;;14.85;;
54388;SDS011;40975;50.390;8.640;2023-03-03T02:46:42;34.03;;;13.57;;
54388;SDS011;40975;50.390;8.640;2023-03-03T02:49:12;30.70;;;13.10;;
54388;SDS011;40975;50.390;8.640;2023-03-03T02:51:40;35.30;;;13.48;;
54388;SDS011;40975;50.390;8.640;2023-03-03T02:54:06;35.03;;;14.60;;
54388;SDS011;40975;50.390;8.640;2023-03-03T02:56:33;34.45;;;14.48;;
54388;SDS011;40975;50.390;8.640;2023-03-03T02:58:59;32.92;;;13.00;;
54388;SDS011;40975;50.390;8.640;2023-03-03T03:01:26;35.25;;;15.27;;
54388;SDS011;40975;50.390;8.640;2023-03-03T03:03:52;31.42;;;12.52;;
54388;SDS011;40975;50.390;8.640;2023-03-03T03:06:21;34.67;;;14.55;;
54388;SDS011;40975;50.390;8.640;2023-03-03T03:08:46;36.70;;;13.88;;
54388;SDS011;40975;50.390;8.640;2023-03-03T03:11:12;35.97;;;13.85;;
54388;SDS011;40975;50.390;8.640;2023-03-03T03:13:38;35.03;;;12.52;;
54388;SDS011;40975;50.390;8.640;2023-03-03T03:16:04;30.77;;;13.30;;
54388;SDS011;40975;50.390;8.640;2023-03-03T03:18:29;40.63;;;14.40;;
54388;SDS011;40975;50.390;8.640;2023-03-03T03:20:56;32.33;;;13.05;;
54388;SDS011;40975;50.390;8.640;2023-03-03T03:23:21;32.53;;;13.55;;
54388;SDS011;40975;50.390;8.640;2023-03-03T03:25:47;34.78;;;13.93;;
54388;SDS011;40975;50.390;8.640;2023-03-03T03:28:20;35.70;;;14.15;;
54388;SDS011;40975;50.390;8.640;2023-03-03T03:30:45;30.45;;;13.18;;
54388;SDS011;40975;50.390;8.640;2023-03-03T03:33:11;35.08;;;14.90;;
54388;SDS011;40975;50.390;8.640;2023-03-03T03:35:38;31.80;;;12.73;;
54388;SDS011;40975;50.390;8.640;2023-03-03T03:40:35;26.63;;;12.85;;
54388;SDS011;40975;50.390;8.640;2023-03-03T03:43:01;33.78;;;13.93;;
54388;SDS011;40975;50.390;8.640;2023-03-03T03:45:26;34.17;;;13.70;;
54388;SDS011;40975;50.390;8.640;2023-03-03T03:47:51;33.85;;;15.00;;
54388;SDS011;40975;50.390;8.640;2023-03-03T03:50:17;35.28;;;15.88;;
54388;SDS011;40975;50.390;8.640;2023-03-03T03:52:43;32.72;;;14.45;;
54388;SDS011;40975;50.390;8.640;2023-03-03T03:55:09;35.65;;;13.82;;
54388;SDS011;40975;50.390;8.640;2023-03-03T03:57:36;36.53;;;14.20;;
54388;SDS011;40975;50.390;8.640;2023-03-03T04:00:02;33.00;;;14.55;;
54388;SDS011;40975;50.390;8.640;2023-03-03T04:02:38;28.98;;;13.43;;
54388;SDS011;40975;50.390;8.640;2023-03-03T04:05:04;36.88;;;14.75;;
54388;SDS011;40975;50.390;8.640;2023-03-03T04:07:30;38.45;;;14.73;;
54388;SDS011;40975;50.390;8.640;2023-03-03T04:09:55;39.35;;;15.20;;
54388;SDS011;40975;50.390;8.640;2023-03-03T04:12:21;39.72;;;15.77;;
54388;SDS011;40975;50.390;8.640;2023-03-03T04:14:46;35.10;;;14.40;;
54388;SDS011;40975;50.390;8.640;2023-03-03T04:17:16;42.20;;;13.63;;
54388;SDS011;40975;50.390;8.640;2023-03-03T04:19:42;34.55;;;13.60;;
54388;SDS011;40975;50.390;8.640;2023-03-03T04:22:08;39.35;;;15.45;;
54388;SDS011;40975;50.390;8.640;2023-03-03T04:24:34;35.53;;;13.98;;
54388;SDS011;40975;50.390;8.640;2023-03-03T04:27:01;42.92;;;17.17;;
54388;SDS011;40975;50.390;8.640;2023-03-03T04:29:28;37.95;;;14.45;;
54388;SDS011;40975;50.390;8.640;2023-03-03T04:31:53;36.78;;;14.55;;
54388;SDS011;40975;50.390;8.640;2023-03-03T04:34:19;43.65;;;17.40;;
54388;SDS011;40975;50.390;8.640;2023-03-03T04:36:45;38.30;;;16.67;;
54388;SDS011;40975;50.390;8.640;2023-03-03T04:39:10;43.65;;;17.17;;
54388;SDS011;40975;50.390;8.640;2023-03-03T04:41:36;43.95;;;16.20;;
54388;SDS011;40975;50.390;8.640;2023-03-03T04:44:02;43.08;;;15.43;;
54388;SDS011;40975;50.390;8.640;2023-03-03T04:46:27;36.40;;;15.70;;
54388;SDS011;40975;50.390;8.640;2023-03-03T04:48:53;37.50;;;15.65;;
54388;SDS011;40975;50.390;8.640;2023-03-03T04:51:20;39.75;;;15.48;;
54388;SDS011;40975;50.390;8.640;2023-03-03T04:53:45;45.92;;;16.00;;
54388;SDS011;40975;50.390;8.640;2023-03-03T04:56:11;43.72;;;17.40;;
54388;SDS011;40975;50.390;8.640;2023-03-03T04:58:37;40.15;;;17.58;;
54388;SDS011;40975;50.390;8.640;2023-03-03T05:01:02;40.67;;;15.73;;
54388;SDS011;40975;50.390;8.640;2023-03-03T05:03:29;45.50;;;17.13;;
54388;SDS011;40975;50.390;8.640;2023-03-03T05:05:55;38.67;;;16.27;;
54388;SDS011;40975;50.390;8.640;2023-03-03T05:08:21;39.00;;;15.45;;
54388;SDS011;40975;50.390;8.640;2023-03-03T05:10:49;43.72;;;16.88;;
54388;SDS011;40975;50.390;8.640;2023-03-03T05:13:16;40.95;;;15.15;;
54388;SDS011;40975;50.390;8.640;2023-03-03T05:15:41;47.78;;;17.33;;
54388;SDS011;40975;50.390;8.640;2023-03-03T05:18:07;46.40;;;17.60;;
54388;SDS011;40975;50.390;8.640;2023-03-03T05:20:32;48.45;;;16.85;;
54388;SDS011;40975;50.390;8.640;2023-03-03T05:22:58;39.42;;;15.20;;
54388;SDS011;40975;50.390;8.640;2023-03-03T05:25:25;46.72;;;16.85;;
54388;SDS011;40975;50.390;8.640;2023-03-03T05:27:51;42.28;;;16.73;;
54388;SDS011;40975;50.390;8.640;2023-03-03T05:30:16;45.42;;;16.63;;
54388;SDS011;40975;50.390;8.640;2023-03-03T05:32:41;34.10;;;15.23;;
54388;SDS011;40975;50.390;8.640;2023-03-03T05:35:07;42.05;;;15.93;;
54388;SDS011;40975;50.390;8.640;2023-03-03T05:37:32;44.67;;;15.65;;
54388;SDS011;40975;50.390;8.640;2023-03-03T05:39:58;41.60;;;16.55;;
54388;SDS011;40975;50.390;8.640;2023-03-03T05:42:23;49.70;;;17.13;;
54388;SDS011;40975;50.390;8.640;2023-03-03T05:44:49;34.30;;;14.68;;
54388;SDS011;40975;50.390;8.640;2023-03-03T05:47:14;38.20;;;13.95;;
54388;SDS011;40975;50.390;8.640;2023-03-03T05:49:39;41.10;;;15.80;;
54388;SDS011;40975;50.390;8.640;2023-03-03T05:52:05;40.63;;;15.73;;
54388;SDS011;40975;50.390;8.640;2023-03-03T05:54:30;39.45;;;14.88;;
54388;SDS011;40975;50.390;8.640;2023-03-03T05:56:55;47.55;;;16.08;;
54388;SDS011;40975;50.390;8.640;2023-03-03T05:59:22;38.83;;;15.20;;
54388;SDS011;40975;50.390;8.640;2023-03-03T06:01:48;36.47;;;14.98;;
54388;SDS011;40975;50.390;8.640;2023-03-03T06:04:13;35.75;;;14.77;;
54388;SDS011;40975;50.390;8.640;2023-03-03T06:06:38;45.63;;;14.35;;
54388;SDS011;40975;50.390;8.640;2023-03-03T06:09:04;39.35;;;14.65;;
54388;SDS011;40975;50.390;8.640;2023-03-03T06:11:30;36.63;;;15.13;;
54388;SDS011;40975;50.390;8.640;2023-03-03T06:13:55;37.40;;;14.50;;
54388;SDS011;40975;50.390;8.640;2023-03-03T06:16:21;40.35;;;14.48;;
54388;SDS011;40975;50.390;8.640;2023-03-03T06:18:46;42.28;;;15.23;;
54388;SDS011;40975;50.390;8.640;2023-03-03T06:21:11;38.25;;;14.57;;
54388;SDS011;40975;50.390;8.640;2023-03-03T06:23:37;40.35;;;15.45;;
54388;SDS011;40975;50.390;8.640;2023-03-03T06:26:02;37.28;;;13.90;;
54388;SDS011;40975;50.390;8.640;2023-03-03T06:28:27;36.67;;;13.85;;
54388;SDS011;40975;50.390;8.640;2023-03-03T06:30:53;42.92;;;16.27;;
54388;SDS011;40975;50.390;8.640;2023-03-03T06:33:19;39.85;;;15.27;;
54388;SDS011;40975;50.390;8.640;2023-03-03T06:35:48;36.97;;;14.90;;
54388;SDS011;40975;50.390;8.640;2023-03-03T06:38:14;37.30;;;14.45;;
54388;SDS011;40975;50.390;8.640;2023-03-03T06:40:39;30.98;;;12.95;;
54388;SDS011;40975;50.390;8.640;2023-03-03T06:43:04;41.50;;;15.38;;
54388;SDS011;40975;50.390;8.640;2023-03-03T06:45:30;32.67;;;13.30;;
54388;SDS011;40975;50.390;8.640;2023-03-03T06:47:55;35.53;;;13.15;;
54388;SDS011;40975;50.390;8.640;2023-03-03T06:50:20;38.72;;;15.02;;
54388;SDS011;40975;50.390;8.640;2023-03-03T06:52:46;33.67;;;12.50;;
54388;SDS011;40975;50.390;8.640;2023-03-03T06:55:12;37.53;;;14.05;;
54388;SDS011;40975;50.390;8.640;2023-03-03T06:57:45;31.70;;;12.43;;
54388;SDS011;40975;50.390;8.640;2023-03-03T07:00:15;31.35;;;11.65;;
54388;SDS011;40975;50.390;8.640;2023-03-03T07:02:52;39.28;;;12.50;;
54388;SDS011;40975;50.390;8.640;2023-03-03T07:05:26;35.38;;;12.02;;
54388;SDS011;40975;50.390;8.640;2023-03-03T07:07:53;30.25;;;11.15;;
54388;SDS011;40975;50.390;8.640;2023-03-03T07:10:24;31.10;;;12.68;;
54388;SDS011;40975;50.390;8.640;2023-03-03T07:12:51;31.20;;;12.18;;
54388;SDS011;40975;50.390;8.640;2023-03-03T07:15:21;38.08;;;12.40;;
54388;SDS011;40975;50.390;8.640;2023-03-03T07:17:49;29.00;;;11.75;;
54388;SDS011;40975;50.390;8.640;2023-03-03T07:20:20;33.78;;;13.38;;
54388;SDS011;40975;50.390;8.640;2023-03-03T07:22:47;32.85;;;12.13;;
54388;SDS011;40975;50.390;8.640;2023-03-03T07:25:18;34.13;;;12.02;;
54388;SDS011;40975;50.390;8.640;2023-03-03T07:27:46;28.38;;;11.32;;
54388;SDS011;40975;50.390;8.640;2023-03-03T07:32:44;35.92;;;11.25;;
54388;SDS011;40975;50.390;8.640;2023-03-03T07:35:28;28.67;;;11.50;;
54388;SDS011;40975;50.390;8.640;2023-03-03T07:37:56;25.58;;;10.25;;
54388;SDS011;40975;50.390;8.640;2023-03-03T07:40:37;29.27;;;10.93;;
54388;SDS011;40975;50.390;8.640;2023-03-03T07:46:22;27.10;;;9.85;;
54388;SDS011;40975;50.390;8.640;2023-03-03T07:49:00;22.77;;;10.05;;
54388;SDS011;40975;50.390;8.640;2023-03-03T07:51:54;24.50;;;10.32;;
54388;SDS011;40975;50.390;8.640;2023-03-03T07:54:29;30.77;;;10.68;;
54388;SDS011;40975;50.390;8.640;2023-03-03T07:56:58;25.40;;;9.15;;
54388;SDS011;40975;50.390;8.640;2023-03-03T07:59:30;25.60;;;9.68;;
54388;SDS011;40975;50.390;8.640;2023-03-03T08:02:00;30.87;;;10.60;;
54388;SDS011;40975;50.390;8.640;2023-03-03T08:04:40;20.55;;;9.63;;
54388;SDS011;40975;50.390;8.640;2023-03-03T08:07:11;24.23;;;9.35;;
54388;SDS011;40975;50.390;8.640;2023-03-03T08:09:51;25.08;;;9.50;;
54388;SDS011;40975;50.390;8.640;2023-03-03T08:14:54;22.73;;;9.13;;
54388;SDS011;40975;50.390;8.640;2023-03-03T08:17:23;22.85;;;9.27;;
54388;SDS011;40975;50.390;8.640;2023-03-03T08:19:50;22.33;;;9.20;;
54388;SDS011;40975;50.390;8.640;2023-03-03T08:22:18;24.58;;;9.10;;
54388;SDS011;40975;50.390;8.640;2023-03-03T08:24:54;26.58;;;9.23;;
54388;SDS011;40975;50.390;8.640;2023-03-03T08:27:19;23.95;;;8.45;;
54388;SDS011;40975;50.390;8.640;2023-03-03T08:29:45;21.30;;;8.63;;
54388;SDS011;40975;50.390;8.640;2023-03-03T08:32:10;23.67;;;8.75;;
54388;SDS011;40975;50.390;8.640;2023-03-03T08:34:35;24.55;;;9.70;;
54388;SDS011;40975;50.390;8.640;2023-03-03T08:37:00;25.80;;;10.00;;
54388;SDS011;40975;50.390;8.640;2023-03-03T08:39:26;26.88;;;8.43;;
54388;SDS011;40975;50.390;8.640;2023-03-03T08:41:51;24.35;;;8.73;;
54388;SDS011;40975;50.390;8.640;2023-03-03T08:44:17;20.23;;;7.97;;
54388;SDS011;40975;50.390;8.640;2023-03-03T08:46:43;21.15;;;8.40;;
54388;SDS011;40975;50.390;8.640;2023-03-03T08:49:08;18.00;;;7.90;;
54388;SDS011;40975;50.390;8.640;2023-03-03T08:51:34;18.98;;;8.32;;
54388;SDS011;40975;50.390;8.640;2023-03-03T08:53:59;18.90;;;7.10;;
54388;SDS011;40975;50.390;8.640;2023-03-03T08:56:25;19.88;;;9.05;;
54388;SDS011;40975;50.390;8.640;2023-03-03T08:58:50;18.30;;;7.00;;
54388;SDS011;40975;50.390;8.640;2023-03-03T09:01:15;18.65;;;7.82;;
54388;SDS011;40975;50.390;8.640;2023-03-03T09:03:42;16.25;;;6.85;;
54388;SDS011;40975;50.390;8.640;2023-03-03T09:06:08;16.48;;;7.35;;
54388;SDS011;40975;50.390;8.640;2023-03-03T09:08:35;18.85;;;8.02;;
54388;SDS011;40975;50.390;8.640;2023-03-03T09:11:00;15.25;;;7.25;;
54388;SDS011;40975;50.390;8.640;2023-03-03T09:13:27;24.50;;;8.07;;
54388;SDS011;40975;50.390;8.640;2023-03-03T09:15:54;18.30;;;6.40;;
54388;SDS011;40975;50.390;8.640;2023-03-03T09:18:30;19.20;;;7.80;;
54388;SDS011;40975;50.390;8.640;2023-03-03T09:20:59;17.92;;;6.97;;
54388;SDS011;40975;50.390;8.640;2023-03-03T09:31:41;19.17;;;7.32;;
54388;SDS011;40975;50.390;8.640;2023-03-03T09:34:19;19.25;;;8.05;;
54388;SDS011;40975;50.390;8.640;2023-03-03T09:36:51;15.52;;;7.25;;
54388;SDS011;40975;50.390;8.640;2023-03-03T09:39:18;16.08;;;7.28;;
54388;SDS011;40975;50.390;8.640;2023-03-03T09:41:58;16.05;;;7.45;;
54388;SDS011;40975;50.390;8.640;2023-03-03T09:50:07;13.70;;;6.53;;
54388;SDS011;40975;50.390;8.640;2023-03-03T09:52:44;15.02;;;6.97;;
54388;SDS011;40975;50.390;8.640;2023-03-03T09:55:43;15.57;;;6.25;;
54388;SDS011;40975;50.390;8.640;2023-03-03T10:04:14;16.83;;;7.13;;
54388;SDS011;40975;50.390;8.640;2023-03-03T10:07:08;16.60;;;7.28;;
54388;SDS011;40975;50.390;8.640;2023-03-03T10:10:24;18.67;;;8.15;;
54388;SDS011;40975;50.390;8.640;2023-03-03T10:18:29;16.77;;;7.43;;
54388;SDS011;40975;50.390;8.640;2023-03-03T10:24:04;16.25;;;7.85;;
54388;SDS011;40975;50.390;8.640;2023-03-03T10:29:38;16.02;;;7.45;;
54388;SDS011;40975;50.390;8.640;2023-03-03T10:32:11;18.42;;;7.63;;
54388;SDS011;40975;50.390;8.640;2023-03-03T10:34:53;17.08;;;7.18;;
54388;SDS011;40975;50.390;8.640;2023-03-03T10:40:22;14.85;;;6.53;;
54388;SDS011;40975;50.390;8.640;2023-03-03T10:43:04;13.32;;;5.68;;
54388;SDS011;40975;50.390;8.640;2023-03-03T10:56:37;15.23;;;6.28;;
54388;SDS011;40975;50.390;8.640;2023-03-03T11:01:58;13.07;;;6.50;;
54388;SDS011;40975;50.390;8.640;2023-03-03T11:04:39;13.77;;;6.38;;
54388;SDS011;40975;50.390;8.640;2023-03-03T11:15:46;14.15;;;6.13;;
54388;SDS011;40975;50.390;8.640;2023-03-03T11:18:34;11.70;;;6.28;;
54388;SDS011;40975;50.390;8.640;2023-03-03T11:27:17;12.05;;;6.40;;
54388;SDS011;40975;50.390;8.640;2023-03-03T11:32:41;11.07;;;6.45;;
54388;SDS011;40975;50.390;8.640;2023-03-03T11:40:55;10.70;;;5.85;;
54388;SDS011;40975;50.390;8.640;2023-03-03T11:46:17;11.38;;;5.03;;
54388;SDS011;40975;50.390;8.640;2023-03-03T11:49:35;10.52;;;5.88;;
54388;SDS011;40975;50.390;8.640;2023-03-03T11:57:47;9.25;;;5.00;;
54388;SDS011;40975;50.390;8.640;2023-03-03T12:02:54;10.38;;;5.38;;
54388;SDS011;40975;50.390;8.640;2023-03-03T12:05:50;10.43;;;5.25;;
54388;SDS011;40975;50.390;8.640;2023-03-03T12:08:22;9.68;;;5.40;;
54388;SDS011;40975;50.390;8.640;2023-03-03T12:14:01;8.77;;;4.73;;
54388;SDS011;40975;50.390;8.640;2023-03-03T12:21:54;7.95;;;4.60;;
54388;SDS011;40975;50.390;8.640;2023-03-03T12:24:33;8.93;;;4.22;;
54388;SDS011;40975;50.390;8.640;2023-03-03T12:41:07;11.30;;;4.85;;
54388;SDS011;40975;50.390;8.640;2023-03-03T12:43:54;7.63;;;4.07;;
54388;SDS011;40975;50.390;8.640;2023-03-03T12:46:29;8.05;;;4.10;;
54388;SDS011;40975;50.390;8.640;2023-03-03T12:49:06;9.32;;;4.97;;
54388;SDS011;40975;50.390;8.640;2023-03-03T12:56:57;6.95;;;3.90;;
54388;SDS011;40975;50.390;8.640;2023-03-03T12:59:36;11.57;;;4.75;;
54388;SDS011;40975;50.390;8.640;2023-03-03T13:02:40;7.70;;;3.78;;
54388;SDS011;40975;50.390;8.640;2023-03-03T13:07:50;8.10;;;3.90;;
54388;SDS011;40975;50.390;8.640;2023-03-03T13:10:35;6.90;;;3.65;;
54388;SDS011;40975;50.390;8.640;2023-03-03T13:16:05;7.90;;;4.32;;
54388;SDS011;40975;50.390;8.640;2023-03-03T13:18:40;8.25;;;4.03;;
54388;SDS011;40975;50.390;8.640;2023-03-03T13:24:02;6.53;;;4.07;;
54388;SDS011;40975;50.390;8.640;2023-03-03T13:29:14;7.75;;;3.80;;
54388;SDS011;40975;50.390;8.640;2023-03-03T13:31:50;5.90;;;3.53;;
54388;SDS011;40975;50.390;8.640;2023-03-03T13:34:25;9.00;;;3.85;;
54388;SDS011;40975;50.390;8.640;2023-03-03T13:37:14;5.93;;;4.15;;
54388;SDS011;40975;50.390;8.640;2023-03-03T13:39:50;5.80;;;3.35;;
54388;SDS011;40975;50.390;8.640;2023-03-03T13:44:45;6.03;;;3.53;;
54388;SDS011;40975;50.390;8.640;2023-03-03T13:47:16;6.00;;;3.17;;
54388;SDS011;40975;50.390;8.640;2023-03-03T13:49:52;5.75;;;2.83;;
54388;SDS011;40975;50.390;8.640;2023-03-03T13:52:37;5.20;;;3.00;;
54388;SDS011;40975;50.390;8.640;2023-03-03T13:55:20;5.45;;;3.28;;
54388;SDS011;40975;50.390;8.640;2023-03-03T14:00:37;6.07;;;3.10;;
54388;SDS011;40975;50.390;8.640;2023-03-03T14:06:15;8.00;;;3.47;;
54388;SDS011;40975;50.390;8.640;2023-03-03T14:08:59;6.50;;;3.28;;
54388;SDS011;40975;50.390;8.640;2023-03-03T14:11:28;5.05;;;3.17;;
54388;SDS011;40975;50.390;8.640;2023-03-03T14:14:08;8.77;;;3.22;;
54388;SDS011;40975;50.390;8.640;2023-03-03T14:22:03;5.50;;;3.40;;
54388;SDS011;40975;50.390;8.640;2023-03-03T14:30:23;4.95;;;2.70;;
54388;SDS011;40975;50.390;8.640;2023-03-03T14:32:58;7.43;;;3.30;;
54388;SDS011;40975;50.390;8.640;2023-03-03T14:35:28;7.55;;;3.50;;
54388;SDS011;40975;50.390;8.640;2023-03-03T14:38:34;5.05;;;2.45;;
54388;SDS011;40975;50.390;8.640;2023-03-03T14:41:02;4.95;;;2.90;;
54388;SDS011;40975;50.390;8.640;2023-03-03T14:43:43;6.43;;;3.13;;
54388;SDS011;40975;50.390;8.640;2023-03-03T14:46:37;5.22;;;2.63;;
54388;SDS011;40975;50.390;8.640;2023-03-03T14:49:05;7.20;;;3.95;;
54388;SDS011;40975;50.390;8.640;2023-03-03T14:51:47;4.30;;;2.80;;
54388;SDS011;40975;50.390;8.640;2023-03-03T14:54:27;7.50;;;3.42;;
54388;SDS011;40975;50.390;8.640;2023-03-03T14:57:41;5.95;;;2.50;;
54388;SDS011;40975;50.390;8.640;2023-03-03T15:02:40;5.85;;;2.88;;
54388;SDS011;40975;50.390;8.640;2023-03-03T15:10:39;6.85;;;3.10;;
54388;SDS011;40975;50.390;8.640;2023-03-03T15:13:23;6.68;;;2.90;;
54388;SDS011;40975;50.390;8.640;2023-03-03T15:18:24;6.32;;;3.35;;
54388;SDS011;40975;50.390;8.640;2023-03-03T15:20:59;6.25;;;2.97;;
54388;SDS011;40975;50.390;8.640;2023-03-03T15:23:37;5.38;;;2.90;;
54388;SDS011;40975;50.390;8.640;2023-03-03T15:29:15;6.28;;;3.22;;
54388;SDS011;40975;50.390;8.640;2023-03-03T15:31:58;5.10;;;3.00;;
54388;SDS011;40975;50.390;8.640;2023-03-03T15:34:43;5.30;;;2.75;;
54388;SDS011;40975;50.390;8.640;2023-03-03T15:37:32;5.30;;;2.60;;
54388;SDS011;40975;50.390;8.640;2023-03-03T15:40:24;8.32;;;3.15;;
54388;SDS011;40975;50.390;8.640;2023-03-03T15:45:52;7.32;;;3.45;;
54388;SDS011;40975;50.390;8.640;2023-03-03T15:48:34;4.60;;;2.58;;
54388;SDS011;40975;50.390;8.640;2023-03-03T15:54:13;5.75;;;3.10;;
54388;SDS011;40975;50.390;8.640;2023-03-03T15:56:52;5.30;;;3.33;;
54388;SDS011;40975;50.390;8.640;2023-03-03T15:59:31;9.20;;;3.10;;
54388;SDS011;40975;50.390;8.640;2023-03-03T16:04:52;6.05;;;3.05;;
54388;SDS011;40975;50.390;8.640;2023-03-03T16:21:28;5.50;;;2.33;;
54388;SDS011;40975;50.390;8.640;2023-03-03T16:24:14;5.93;;;2.78;;
54388;SDS011;40975;50.390;8.640;2023-03-03T16:26:59;4.20;;;2.25;;
54388;SDS011;40975;50.390;8.640;2023-03-03T16:29:45;5.35;;;2.38;;
54388;SDS011;40975;50.390;8.640;2023-03-03T16:32:33;3.45;;;2.03;;
54388;SDS011;40975;50.390;8.640;2023-03-03T16:35:14;3.90;;;2.00;;
54388;SDS011;40975;50.390;8.640;2023-03-03T16:40:20;6.15;;;2.45;;
54388;SDS011;40975;50.390;8.640;2023-03-03T16:45:57;6.30;;;2.28;;
54388;SDS011;40975;50.390;8.640;2023-03-03T16:48:52;3.78;;;2.10;;
54388;SDS011;40975;50.390;8.640;2023-03-03T16:52:07;4.78;;;2.55;;
54388;SDS011;40975;50.390;8.640;2023-03-03T16:59:57;6.00;;;2.78;;
54388;SDS011;40975;50.390;8.640;2023-03-03T17:02:47;10.63;;;3.42;;
54388;SDS011;40975;50.390;8.640;2023-03-03T17:10:50;5.97;;;3.22;;
54388;SDS011;40975;50.390;8.640;2023-03-03T17:24:31;6.93;;;3.20;;
54388;SDS011;40975;50.390;8.640;2023-03-03T17:27:27;7.60;;;3.20;;
54388;SDS011;40975;50.390;8.640;2023-03-03T17:30:00;9.07;;;3.75;;
54388;SDS011;40975;50.390;8.640;2023-03-03T17:35:40;6.85;;;2.92;;
54388;SDS011;40975;50.390;8.640;2023-03-03T17:41:10;11.38;;;5.32;;
54388;SDS011;40975;50.390;8.640;2023-03-03T17:44:01;7.78;;;4.10;;
54388;SDS011;40975;50.390;8.640;2023-03-03T17:46:38;6.25;;;3.42;;
54388;SDS011;40975;50.390;8.640;2023-03-03T17:54:42;8.45;;;4.63;;
54388;SDS011;40975;50.390;8.640;2023-03-03T18:00:23;11.40;;;3.67;;
54388;SDS011;40975;50.390;8.640;2023-03-03T18:03:01;7.88;;;3.47;;
54388;SDS011;40975;50.390;8.640;2023-03-03T18:14:44;9.57;;;3.70;;
54388;SDS011;40975;50.390;8.640;2023-03-03T18:20:45;9.75;;;5.05;;
54388;SDS011;40975;50.390;8.640;2023-03-03T18:23:41;10.10;;;4.05;;
54388;SDS011;40975;50.390;8.640;2023-03-03T18:28:52;8.48;;;3.92;;
54388;SDS011;40975;50.390;8.640;2023-03-03T18:34:37;15.45;;;5.68;;
54388;SDS011;40975;50.390;8.640;2023-03-03T18:40:36;9.27;;;3.97;;
54388;SDS011;40975;50.390;8.640;2023-03-03T18:42:44;11.20;;;4.78;;
54388;SDS011;40975;50.390;8.640;2023-03-03T18:50:31;10.30;;;4.68;;
54388;SDS011;40975;50.390;8.640;2023-03-03T18:55:39;10.80;;;4.85;;
54388;SDS011;40975;50.390;8.640;2023-03-03T19:00:46;8.57;;;3.75;;
54388;SDS011;40975;50.390;8.640;2023-03-03T19:03:26;9.90;;;4.22;;
54388;SDS011;40975;50.390;8.640;2023-03-03T19:06:11;8.27;;;3.15;;
54388;SDS011;40975;50.390;8.640;2023-03-03T19:08:54;10.02;;;3.95;;
54388;SDS011;40975;50.390;8.640;2023-03-03T19:16:50;11.18;;;4.38;;
54388;SDS011;40975;50.390;8.640;2023-03-03T19:19:17;11.35;;;4.13;;
54388;SDS011;40975;50.390;8.640;2023-03-03T19:22:16;11.15;;;4.97;;
54388;SDS011;40975;50.390;8.640;2023-03-03T19:27:34;11.45;;;4.05;;
54388;SDS011;40975;50.390;8.640;2023-03-03T19:30:16;7.75;;;3.90;;
54388;SDS011;40975;50.390;8.640;2023-03-03T19:33:06;10.13;;;4.53;;
54388;SDS011;40975;50.390;8.640;2023-03-03T19:35:41;14.05;;;5.13;;
54388;SDS011;40975;50.390;8.640;2023-03-03T19:43:46;14.27;;;4.32;;
54388;SDS011;40975;50.390;8.640;2023-03-03T19:46:34;8.63;;;3.90;;